Time;durP1;ratioP1;P1;durP2;ratioP2;P2;SDS_P1;SDS_P2;PMS_P1;PMS_P2;Temp;Humidity;BMP_temperature;BMP_pressure;BME280_temperature;BME280_humidity;BME280_pressure;Samples;Min_cycle;Max_cycle;Signal;HPM_P1;HPM_P2
2023/02/14 00:00:18;;;;;;;19.02;11.75;;;;;;;-3.93;100.00;94587.47;2116113;27;20024;-73
2023/02/14 00:01:19;;;;;;;16.38;11.63;;;;;;;-3.90;100.00;94593.97;2114177;27;20115;-73
2023/02/14 00:02:20;;;;;;;16.33;11.55;;;;;;;-3.91;100.00;94582.72;2115242;27;20070;-73
2023/02/14 00:03:21;;;;;;;14.38;10.35;;;;;;;-3.88;100.00;94584.00;2119487;27;20027;-72
2023/02/14 00:04:22;;;;;;;16.35;10.90;;;;;;;-3.89;100.00;94585.06;2118277;27;20092;-73
2023/02/14 00:05:23;;;;;;;15.60;10.95;;;;;;;-3.84;100.00;94584.97;2117408;27;20457;-74
2023/02/14 00:06:24;;;;;;;13.90;10.07;;;;;;;-3.87;100.00;94585.53;2117566;27;20049;-74
2023/02/14 00:07:25;;;;;;;15.15;10.68;;;;;;;-3.89;100.00;94577.22;2117185;27;20032;-75
2023/02/14 00:08:27;;;;;;;15.20;10.85;;;;;;;-3.90;100.00;94583.53;2115778;27;20389;-74
2023/02/14 00:09:28;;;;;;;14.43;10.63;;;;;;;-3.92;100.00;94583.03;2115530;27;20040;-74
2023/02/14 00:10:30;;;;;;;18.55;11.63;;;;;;;-3.89;100.00;94577.22;2108390;28;20647;-74
2023/02/14 00:11:32;;;;;;;15.35;10.82;;;;;;;-3.96;100.00;94579.44;2116657;27;20081;-74
2023/02/14 00:12:33;;;;;;;15.23;11.25;;;;;;;-3.98;100.00;94586.78;2116254;27;20408;-75
2023/02/14 00:13:34;;;;;;;17.60;11.60;;;;;;;-4.04;100.00;94583.47;2116139;27;20019;-74
2023/02/14 00:15:55;;;;;;;16.27;10.93;;;;;;;-3.96;100.00;94585.44;2114489;27;20405;-74
2023/02/14 00:16:56;;;;;;;15.20;10.93;;;;;;;-3.97;100.00;94586.50;2116510;27;20054;-74
2023/02/14 00:18:00;;;;;;;16.30;10.88;;;;;;;-4.00;100.00;94587.06;2116126;27;20080;-74
2023/02/14 00:19:02;;;;;;;13.80;10.40;;;;;;;-4.00;100.00;94583.69;2108660;28;20510;-72
2023/02/14 00:20:03;;;;;;;14.73;10.65;;;;;;;-4.08;100.00;94585.91;2113760;27;20637;-74
2023/02/14 00:21:04;;;;;;;16.10;10.35;;;;;;;-4.05;100.00;94587.91;2118091;27;20493;-73
2023/02/14 00:22:05;;;;;;;13.95;9.98;;;;;;;-4.04;100.00;94591.31;2118259;27;20070;-74
2023/02/14 00:23:06;;;;;;;15.52;11.75;;;;;;;-4.00;100.00;94589.66;2116076;27;20024;-74
2023/02/14 00:24:20;;;;;;;13.25;9.98;;;;;;;-3.95;100.00;94592.22;2119005;27;20074;-75
2023/02/14 00:25:21;;;;;;;13.73;9.57;;;;;;;-4.02;100.00;94593.66;2116937;27;20062;-74
2023/02/14 00:26:22;;;;;;;14.02;11.05;;;;;;;-4.03;100.00;94592.88;2114909;27;20030;-74
2023/02/14 00:27:23;;;;;;;13.20;9.48;;;;;;;-3.99;100.00;94587.88;2114872;27;20023;-74
2023/02/14 00:28:24;;;;;;;12.48;9.38;;;;;;;-3.98;100.00;94581.56;2118667;27;20042;-73
2023/02/14 00:29:29;;;;;;;14.82;10.35;;;;;;;-3.95;100.00;94588.81;2112745;27;20114;-75
2023/02/14 00:30:30;;;;;;;15.98;10.75;;;;;;;-4.05;100.00;94585.31;2116036;27;20027;-74
2023/02/14 00:31:31;;;;;;;12.15;9.52;;;;;;;-4.00;100.00;94578.47;2113737;27;20023;-75
2023/02/14 00:32:33;;;;;;;14.80;10.05;;;;;;;-3.96;100.00;94576.81;2117130;27;20050;-74
2023/02/14 00:33:34;;;;;;;13.85;9.63;;;;;;;-4.03;100.00;94584.28;2119359;27;20605;-74
2023/02/14 00:34:35;;;;;;;12.55;9.63;;;;;;;-4.02;100.00;94576.13;2115140;27;20060;-74
2023/02/14 00:35:37;;;;;;;14.55;9.95;;;;;;;-4.03;100.00;94579.06;2118760;27;20076;-73
2023/02/14 00:36:38;;;;;;;13.02;9.68;;;;;;;-4.00;100.00;94578.47;2114709;27;20126;-73
2023/02/14 00:37:39;;;;;;;14.93;10.38;;;;;;;-4.09;100.00;94579.13;2111298;27;20023;-74
2023/02/14 00:38:40;;;;;;;13.82;10.02;;;;;;;-4.04;100.00;94575.63;2116009;27;20457;-73
2023/02/14 00:39:42;;;;;;;13.52;10.05;;;;;;;-4.09;100.00;94575.72;2113979;27;20015;-74
2023/02/14 00:40:43;;;;;;;13.30;9.50;;;;;;;-4.02;100.00;94578.75;2113314;27;20541;-74
2023/02/14 00:41:44;;;;;;;14.27;9.75;;;;;;;-4.09;100.00;94573.88;2116386;27;20055;-75
2023/02/14 00:42:45;;;;;;;12.68;8.70;;;;;;;-4.02;100.00;94576.13;2120742;27;20031;-72
2023/02/14 00:43:47;;;;;;;13.07;9.63;;;;;;;-4.04;100.00;94578.25;2119892;27;20019;-74
2023/02/14 00:44:48;;;;;;;11.95;8.75;;;;;;;-4.05;100.00;94582.69;2117076;27;20031;-73
2023/02/14 00:45:49;;;;;;;13.95;9.73;;;;;;;-4.05;100.00;94580.09;2117383;27;20073;-74
2023/02/14 00:46:50;;;;;;;14.02;9.55;;;;;;;-4.08;100.00;94577.31;2108407;28;20035;-73
2023/02/14 00:47:51;;;;;;;14.45;9.13;;;;;;;-4.02;100.00;94580.59;2108024;28;20051;-73
2023/02/14 00:48:53;;;;;;;12.70;9.52;;;;;;;-4.06;100.00;94581.16;2119143;27;20378;-75
2023/02/14 00:49:54;;;;;;;12.65;9.20;;;;;;;-4.15;100.00;94580.28;2117288;27;20676;-75
2023/02/14 00:50:55;;;;;;;12.98;9.55;;;;;;;-4.11;100.00;94583.84;2117263;27;20028;-73
2023/02/14 00:51:56;;;;;;;13.35;9.50;;;;;;;-4.19;100.00;94578.53;2115816;27;20533;-74
2023/02/14 00:52:57;;;;;;;13.60;9.45;;;;;;;-4.11;100.00;94578.63;2110578;28;20027;-74
2023/02/14 00:53:59;;;;;;;11.85;9.43;;;;;;;-4.15;100.00;94575.06;2118146;27;20470;-75
2023/02/14 00:55:00;;;;;;;13.85;8.80;;;;;;;-4.13;100.00;94583.34;2110834;27;20044;-74
2023/02/14 00:56:01;;;;;;;14.20;9.93;;;;;;;-4.09;100.00;94578.34;2113855;27;20124;-75
2023/02/14 00:57:02;;;;;;;13.13;9.70;;;;;;;-4.14;100.00;94581.03;2104621;28;20030;-73
2023/02/14 00:58:03;;;;;;;15.15;9.57;;;;;;;-4.19;100.00;94573.31;2100895;28;20433;-76
2023/02/14 00:59:04;;;;;;;12.45;9.30;;;;;;;-4.15;100.00;94577.66;2114762;27;20027;-74
2023/02/14 01:00:06;;;;;;;15.10;10.30;;;;;;;-4.18;100.00;94578.22;2104359;28;20016;-74
2023/02/14 01:01:09;;;;;;;12.57;9.80;;;;;;;-4.18;100.00;94573.00;2108609;28;20035;-73
2023/02/14 01:02:09;;;;;;;11.80;9.10;;;;;;;-4.12;100.00;94584.16;2114095;27;20114;-75
2023/02/14 01:03:10;;;;;;;12.60;9.20;;;;;;;-4.11;100.00;94573.41;2113717;27;20450;-75
2023/02/14 01:04:11;;;;;;;12.30;9.40;;;;;;;-4.13;100.00;94577.38;2116955;27;20068;-73
2023/02/14 01:05:12;;;;;;;12.00;9.23;;;;;;;-4.15;100.00;94574.28;2114432;27;20031;-72
2023/02/14 01:06:13;;;;;;;12.27;9.60;;;;;;;-4.12;100.00;94577.09;2117615;27;20027;-73
2023/02/14 01:07:15;;;;;;;12.23;9.13;;;;;;;-4.17;100.00;94579.78;2114689;27;20034;-73
2023/02/14 01:08:17;;;;;;;12.57;9.30;;;;;;;-4.16;100.00;94573.50;2116469;27;20520;-74
2023/02/14 01:09:18;;;;;;;11.65;9.05;;;;;;;-4.13;100.00;94577.38;2111497;27;20134;-73
2023/02/14 01:10:19;;;;;;;12.57;9.65;;;;;;;-4.13;100.00;94580.75;2112984;27;20440;-72
2023/02/14 01:11:22;;;;;;;13.02;9.70;;;;;;;-4.10;100.00;94577.56;2112167;27;20040;-73
2023/02/14 01:12:23;;;;;;;12.18;9.43;;;;;;;-4.09;100.00;94567.91;2115019;27;20035;-71
2023/02/14 01:13:23;;;;;;;11.60;8.65;;;;;;;-4.17;100.00;94568.56;2115805;27;20032;-74
2023/02/14 01:14:24;;;;;;;10.98;8.50;;;;;;;-4.12;100.00;94577.09;2117074;27;20513;-72
2023/02/14 01:15:25;;;;;;;12.18;9.75;;;;;;;-4.17;100.00;94571.16;2116889;27;20028;-73
2023/02/14 01:16:28;;;;;;;13.02;10.25;;;;;;;-4.18;100.00;94575.63;2117600;27;20414;-73
2023/02/14 01:17:29;;;;;;;14.38;10.07;;;;;;;-4.30;100.00;94575.31;2120134;27;20122;-72
2023/02/14 01:18:33;;;;;;;13.75;10.05;;;;;;;-4.22;100.00;94568.66;2112904;27;20020;-73
2023/02/14 01:19:35;;;;;;;12.32;9.13;;;;;;;-4.20;100.00;94572.53;2108102;28;20554;-73
2023/02/14 01:20:37;;;;;;;12.80;9.23;;;;;;;-4.18;100.00;94575.63;2104268;28;20020;-74
2023/02/14 01:21:38;;;;;;;13.75;9.90;;;;;;;-4.14;100.00;94573.22;2118115;27;20108;-73
2023/02/14 01:22:39;;;;;;;13.48;9.20;;;;;;;-4.21;100.00;94576.22;2114155;27;20660;-74
2023/02/14 01:23:41;;;;;;;12.75;10.00;;;;;;;-4.19;100.00;94579.28;2120270;27;20051;-72
2023/02/14 01:24:42;;;;;;;12.15;8.82;;;;;;;-4.23;100.00;94577.53;2117123;27;20023;-72
2023/02/14 01:25:43;;;;;;;12.13;9.45;;;;;;;-4.22;100.00;94579.84;2116096;27;20031;-74
2023/02/14 01:26:45;;;;;;;14.32;10.80;;;;;;;-4.25;100.00;94577.06;2113375;27;20031;-73
2023/02/14 01:27:45;;;;;;;13.10;9.95;;;;;;;-4.26;100.00;94578.09;2117328;27;20411;-72
2023/02/14 01:28:47;;;;;;;12.70;9.65;;;;;;;-4.25;100.00;94583.06;2114521;27;20023;-73
2023/02/14 01:29:48;;;;;;;15.20;10.70;;;;;;;-4.26;100.00;94576.25;2116858;27;20092;-74
2023/02/14 01:30:50;;;;;;;13.60;9.90;;;;;;;-4.32;100.00;94572.19;2115694;27;20027;-73
2023/02/14 01:31:51;;;;;;;12.05;9.30;;;;;;;-4.35;100.00;94576.13;2114874;27;20020;-72
2023/02/14 01:32:52;;;;;;;12.70;9.70;;;;;;;-4.31;100.00;94581.56;2117534;27;20027;-74
2023/02/14 01:33:54;;;;;;;13.40;9.85;;;;;;;-4.31;100.00;94574.50;2115110;27;20023;-74
2023/02/14 01:34:55;;;;;;;14.75;9.98;;;;;;;-4.35;100.00;94573.53;2115058;27;20351;-74
2023/02/14 01:35:57;;;;;;;12.45;9.30;;;;;;;-4.38;100.00;94578.56;2117062;27;20046;-73
2023/02/14 01:36:58;;;;;;;13.15;9.82;;;;;;;-4.34;100.00;94574.34;2116813;27;20031;-74
2023/02/14 01:37:59;;;;;;;11.55;9.27;;;;;;;-4.29;100.00;94571.63;2110918;27;20145;-73
2023/02/14 01:39:07;;;;;;;11.93;9.50;;;;;;;-4.36;100.00;94564.16;2116974;27;20538;-73
2023/02/14 01:40:10;;;;;;;12.48;9.57;;;;;;;-4.32;100.00;94570.34;2118387;27;20113;-74
2023/02/14 01:41:12;;;;;;;13.43;9.93;;;;;;;-4.25;100.00;94567.41;2110306;28;20027;-73
2023/02/14 01:42:13;;;;;;;12.95;9.88;;;;;;;-4.25;100.00;94564.78;2120465;27;20031;-74
2023/02/14 01:43:14;;;;;;;13.95;9.63;;;;;;;-4.24;100.00;94571.56;2115940;27;20430;-74
2023/02/14 01:44:18;;;;;;;11.75;9.40;;;;;;;-4.24;100.00;94568.94;2120547;27;20083;-73
2023/02/14 01:45:24;;;;;;;11.20;8.63;;;;;;;-4.25;100.00;94571.84;2114334;27;20035;-74
2023/02/14 01:46:28;;;;;;;11.25;8.93;;;;;;;-4.27;100.00;94572.09;2117122;27;20409;-75
2023/02/14 01:47:33;;;;;;;11.38;8.85;;;;;;;-4.26;100.00;94568.44;2114445;27;20031;-76
2023/02/14 01:48:35;;;;;;;10.63;8.60;;;;;;;-4.28;100.00;94570.56;2116330;27;20023;-75
2023/02/14 01:49:59;;;;;;;11.20;8.57;;;;;;;-4.32;100.00;94570.34;2113150;28;20035;-75
2023/02/14 01:51:01;;;;;;;10.98;8.05;;;;;;;-4.33;100.00;94570.66;2114433;27;20030;-75
2023/02/14 01:52:12;;;;;;;11.10;8.70;;;;;;;-4.37;100.00;94567.06;2117376;27;20019;-76
2023/02/14 01:53:23;;;;;;;13.32;9.02;;;;;;;-4.41;100.00;94563.47;2113615;27;20458;-74
2023/02/14 01:54:27;;;;;;;11.90;8.32;;;;;;;-4.43;100.00;94570.81;2117848;27;20039;-76
2023/02/14 01:55:32;;;;;;;12.82;9.63;;;;;;;-4.41;100.00;94574.69;2117156;27;20039;-75
2023/02/14 01:56:39;;;;;;;13.23;9.32;;;;;;;-4.49;100.00;94567.50;2117354;27;20030;-74
2023/02/14 01:57:44;;;;;;;11.45;8.60;;;;;;;-4.43;100.00;94569.00;2110248;28;20035;-75
2023/02/14 01:58:50;;;;;;;10.45;8.50;;;;;;;-4.43;100.00;94558.56;2106088;27;20051;-76
2023/02/14 01:59:55;;;;;;;12.82;8.93;;;;;;;-4.44;100.00;94561.44;2114470;27;20024;-74
2023/02/14 02:00:56;;;;;;;10.38;7.88;;;;;;;-4.47;100.00;94560.19;2108882;28;20027;-74
2023/02/14 02:01:59;;;;;;;11.63;8.32;;;;;;;-4.42;100.00;94557.47;2107930;28;20023;-74
2023/02/14 02:03:01;;;;;;;11.50;8.63;;;;;;;-4.40;100.00;94565.03;2117070;27;20749;-73
2023/02/14 02:04:08;;;;;;;10.18;8.75;;;;;;;-4.44;100.00;94562.19;2116902;27;20034;-73
2023/02/14 02:05:10;;;;;;;9.63;7.90;;;;;;;-4.48;100.00;94560.44;2110859;28;20027;-74
2023/02/14 02:06:32;;;;;;;12.77;8.57;;;;;;;-4.46;100.00;94559.13;2118530;27;20034;-73
2023/02/14 02:07:35;;;;;;;12.90;8.18;;;;;;;-4.46;100.00;94558.34;2117257;27;20035;-73
2023/02/14 02:08:41;;;;;;;10.70;8.15;;;;;;;-4.45;100.00;94557.28;2116480;27;20055;-72
2023/02/14 02:09:52;;;;;;;10.85;7.97;;;;;;;-4.48;100.00;94553.38;2109471;28;20050;-74
2023/02/14 02:10:53;;;;;;;12.40;8.23;;;;;;;-4.45;100.00;94559.88;2116651;27;20080;-72
2023/02/14 02:11:55;;;;;;;12.00;8.35;;;;;;;-4.43;100.00;94561.16;2113107;28;20097;-74
2023/02/14 02:13:02;;;;;;;11.00;8.80;;;;;;;-4.50;100.00;94554.75;2117520;27;20123;-74
2023/02/14 02:14:03;;;;;;;10.15;7.78;;;;;;;-4.47;100.00;94554.97;2117356;27;20054;-74
2023/02/14 02:15:05;;;;;;;12.93;7.63;;;;;;;-4.51;100.00;94550.59;2113862;28;20512;-73
2023/02/14 02:16:24;;;;;;;10.55;7.85;;;;;;;-4.50;100.00;94557.34;2103182;28;20032;-72
2023/02/14 02:19:22;;;;;;;;;;;;;;;-4.51;100.00;94550.59;2135102;27;20566;-74
2023/02/14 02:21:02;;;;;;;9.98;7.72;;;;;;;-4.48;100.00;94552.63;2133166;27;19915;-74
2023/02/14 02:22:25;;;;;;;9.20;7.40;;;;;;;-4.54;100.00;94551.16;2136052;27;20022;-73
2023/02/14 02:23:56;;;;;;;8.85;7.22;;;;;;;-4.56;100.00;94544.41;2136249;27;20457;-74
2023/02/14 02:25:43;;;;;;;9.02;7.28;;;;;;;-4.58;100.00;94545.72;2126712;27;20462;-73
2023/02/14 02:26:59;;;;;;;8.80;6.70;;;;;;;-4.56;100.00;94541.78;2125139;27;20103;-74
2023/02/14 02:28:30;;;;;;;9.38;7.72;;;;;;;-4.57;100.00;94540.22;2118540;27;20449;-74
2023/02/14 02:29:58;;;;;;;10.90;7.65;;;;;;;-4.53;100.00;94539.66;2129597;27;20033;-75
2023/02/14 02:31:20;;;;;;;11.05;7.63;;;;;;;-4.52;100.00;94543.81;2126039;27;20131;-75
2023/02/14 02:32:59;;;;;;;10.02;7.60;;;;;;;-4.56;100.00;94530.59;2127103;27;20412;-73
2023/02/14 02:34:11;;;;;;;9.52;7.85;;;;;;;-4.58;100.00;94540.50;2126853;27;20042;-73
2023/02/14 02:35:47;;;;;;;9.93;7.63;;;;;;;-4.57;100.00;94531.63;2126700;27;20030;-74
2023/02/14 02:36:51;;;;;;;10.68;7.47;;;;;;;-4.60;100.00;94538.19;2134036;27;20066;-74
2023/02/14 02:38:07;;;;;;;9.65;7.40;;;;;;;-4.56;100.00;94541.03;2117257;28;20119;-73
2023/02/14 02:39:29;;;;;;;9.23;7.35;;;;;;;-4.52;100.00;94542.00;2121227;27;20027;-75
2023/02/14 02:41:05;;;;;;;10.30;7.45;;;;;;;-4.54;100.00;94531.06;2136044;27;20464;-74
2023/02/14 02:42:43;;;;;;;10.95;7.40;;;;;;;-4.50;100.00;94536.47;2136405;27;20027;-74
2023/02/14 02:43:55;;;;;;;9.75;7.30;;;;;;;-4.53;100.00;94535.22;2133127;27;20033;-74
2023/02/14 02:45:10;;;;;;;9.18;7.10;;;;;;;-4.57;100.00;94537.59;2129781;27;20476;-73
2023/02/14 02:48:08;;;;;;;10.38;7.70;;;;;;;-4.64;100.00;94537.22;2135349;27;20018;-72
2023/02/14 02:53:21;;;;;;;;;;;;;;;-4.62;100.00;94539.53;2100702;28;20115;-74
2023/02/14 02:54:36;;;;;;;7.50;6.30;;;;;;;-4.62;100.00;94547.34;2096882;28;19912;-74
2023/02/14 02:57:26;;;;;;;10.32;6.30;;;;;;;-4.66;100.00;94554.19;2136000;27;20037;-74
2023/02/14 02:58:49;;;;;;;10.43;7.05;;;;;;;-4.75;100.00;94548.84;2134123;27;20078;-74
2023/02/14 02:59:53;;;;;;;8.23;6.95;;;;;;;-4.74;100.00;94558.25;2131969;27;20058;-73
2023/02/14 03:00:54;;;;;;;10.10;7.60;;;;;;;-4.86;100.00;94550.84;2136811;27;20030;-73
2023/02/14 03:02:12;;;;;;;9.23;7.07;;;;;;;-4.82;100.00;94551.06;2134747;27;20034;-73
2023/02/14 03:04:54;;;;;;;10.00;7.30;;;;;;;-4.78;100.00;94546.84;2136338;27;20105;-74
2023/02/14 03:05:56;;;;;;;9.23;7.10;;;;;;;-4.77;100.00;94548.38;2125863;27;20035;-73
2023/02/14 03:06:59;;;;;;;9.07;7.30;;;;;;;-4.74;100.00;94547.00;2116680;28;20454;-74
2023/02/14 03:08:01;;;;;;;9.40;7.30;;;;;;;-4.76;100.00;94546.53;2126592;27;20026;-74
2023/02/14 03:09:31;;;;;;;8.98;7.05;;;;;;;-4.72;100.00;94545.69;2125156;27;20035;-72
2023/02/14 03:10:37;;;;;;;9.82;7.00;;;;;;;-4.68;100.00;94545.91;2101063;28;20055;-73
2023/02/14 03:11:53;;;;;;;11.23;7.68;;;;;;;-4.67;100.00;94542.22;2109234;28;20161;-73
2023/02/14 03:13:29;;;;;;;9.70;7.32;;;;;;;-4.68;100.00;94546.66;2137113;27;20026;-74
2023/02/14 03:14:47;;;;;;;9.27;6.90;;;;;;;-4.73;100.00;94541.53;2134648;27;20022;-73
2023/02/14 03:16:10;;;;;;;9.65;7.65;;;;;;;-4.86;100.00;94540.41;2129039;27;20079;-73
2023/02/14 03:17:24;;;;;;;10.52;7.20;;;;;;;-4.78;100.00;94549.44;2120060;27;20031;-74
2023/02/14 03:19:07;;;;;;;10.57;7.03;;;;;;;-4.77;100.00;94539.78;2117272;28;20043;-73
2023/02/14 03:20:48;;;;;;;9.18;6.90;;;;;;;-4.78;100.00;94541.63;2132787;27;20114;-73
2023/02/14 03:22:00;;;;;;;10.35;6.78;;;;;;;-4.77;100.00;94537.94;2096942;28;20140;-74
2023/02/14 03:23:13;;;;;;;10.20;7.45;;;;;;;-4.76;100.00;94536.88;2133034;27;20670;-73
2023/02/14 03:24:47;;;;;;;8.93;6.85;;;;;;;-4.77;100.00;94530.13;2131131;27;20031;-73
2023/02/14 03:26:11;;;;;;;9.98;6.97;;;;;;;-4.78;100.00;94535.59;2124527;27;20411;-74
2023/02/14 03:27:31;;;;;;;9.57;6.75;;;;;;;-4.85;100.00;94533.38;2132672;27;20037;-74
2023/02/14 03:28:47;;;;;;;;;;;;;;;-4.86;100.00;94527.38;2126182;27;20079;-73
2023/02/14 03:29:57;;;;;;;10.13;7.47;;;;;;;-4.85;100.00;94526.31;2124596;27;19919;-73
2023/02/14 03:31:18;;;;;;;10.20;7.25;;;;;;;-4.87;100.00;94538.88;2126640;27;20498;-73
2023/02/14 03:33:06;;;;;;;10.43;7.80;;;;;;;-4.87;100.00;94528.44;2118585;27;20081;-73
2023/02/14 03:34:34;;;;;;;9.60;6.93;;;;;;;-4.86;100.00;94529.22;2071134;28;20086;-73
2023/02/14 03:35:53;;;;;;;10.15;7.35;;;;;;;-4.87;100.00;94531.06;2118083;27;20030;-73
2023/02/14 03:37:09;;;;;;;10.25;7.70;;;;;;;-4.89;100.00;94527.16;2130162;27;20039;-72
2023/02/14 03:38:43;;;;;;;10.48;7.28;;;;;;;-4.95;100.00;94523.88;2126669;27;20023;-71
2023/02/14 03:40:14;;;;;;;9.35;6.93;;;;;;;-4.99;100.00;94525.47;2127002;27;20025;-73
2023/02/14 03:41:23;;;;;;;9.40;6.63;;;;;;;-5.03;100.00;94521.13;2130441;27;20062;-73
2023/02/14 03:42:30;;;;;;;8.40;6.55;;;;;;;-4.99;100.00;94522.88;2129185;27;20049;-72
2023/02/14 03:43:40;;;;;;;8.07;6.60;;;;;;;-4.96;100.00;94518.91;2127850;27;20071;-72
2023/02/14 03:44:43;;;;;;;8.40;7.00;;;;;;;-4.97;100.00;94528.56;2130565;27;20027;-72
2023/02/14 03:45:57;;;;;;;9.05;6.97;;;;;;;-4.95;100.00;94523.09;2120845;27;20114;-72
2023/02/14 03:47:05;;;;;;;8.50;6.70;;;;;;;-4.94;100.00;94527.25;2119049;27;20034;-72
2023/02/14 03:48:11;;;;;;;9.82;7.18;;;;;;;-4.96;100.00;94521.53;2120872;27;20038;-73
2023/02/14 03:49:21;;;;;;;9.70;7.40;;;;;;;-4.99;100.00;94527.31;2121021;27;20031;-72
2023/02/14 03:50:27;;;;;;;10.55;6.97;;;;;;;-5.03;100.00;94524.50;2117712;27;20039;-72
2023/02/14 03:51:33;;;;;;;8.77;6.90;;;;;;;-5.00;100.00;94521.34;2121222;27;20638;-72
2023/02/14 03:52:36;;;;;;;10.43;6.95;;;;;;;-5.02;100.00;94517.44;2129117;27;20433;-72
2023/02/14 03:53:41;;;;;;;9.38;7.30;;;;;;;-5.08;100.00;94517.53;2129034;27;20113;-72
2023/02/14 03:54:45;;;;;;;9.00;6.78;;;;;;;-5.12;100.00;94526.19;2117710;27;20068;-73
2023/02/14 03:56:01;;;;;;;10.20;6.65;;;;;;;-5.14;100.00;94526.44;2117923;27;20031;-75
2023/02/14 03:57:18;;;;;;;9.38;6.43;;;;;;;-5.06;100.00;94523.22;2128925;27;20085;-75
2023/02/14 03:58:27;;;;;;;7.10;6.28;;;;;;;-5.06;100.00;94515.41;2130146;27;20110;-75
2023/02/14 03:59:28;;;;;;;7.78;5.55;;;;;;;-5.09;100.00;94518.59;2119422;27;20516;-75
2023/02/14 04:00:32;;;;;;;6.60;5.38;;;;;;;-5.10;100.00;94522.22;2119120;27;20028;-74
2023/02/14 04:02:00;;;;;;;8.32;5.90;;;;;;;-5.17;100.00;94524.44;2128104;27;20023;-74
2023/02/14 04:03:10;;;;;;;6.18;4.85;;;;;;;-5.11;100.00;94518.09;2126673;27;20027;-74
2023/02/14 04:04:13;;;;;;;;;;;;;;;-5.15;100.00;94517.09;2128189;27;20027;-74
2023/02/14 04:05:20;;;;;;;5.63;4.78;;;;;;;-5.12;100.00;94518.38;2131123;27;19914;-74
2023/02/14 04:06:22;;;;;;;7.40;5.47;;;;;;;-5.13;100.00;94509.00;2127229;27;20380;-74
2023/02/14 04:07:24;;;;;;;5.35;4.60;;;;;;;-5.18;100.00;94516.88;2120992;27;20031;-74
2023/02/14 04:08:29;;;;;;;7.05;4.97;;;;;;;-5.22;100.00;94516.69;2121018;27;20034;-74
2023/02/14 04:09:30;;;;;;;7.85;4.75;;;;;;;-5.19;100.00;94521.31;2125430;27;20187;-74
2023/02/14 04:10:31;;;;;;;8.18;5.00;;;;;;;-5.18;100.00;94503.84;2126581;27;20022;-75
2023/02/14 04:11:34;;;;;;;5.60;4.53;;;;;;;-5.20;100.00;94519.00;2127324;27;20019;-73
2023/02/14 04:12:35;;;;;;;5.35;4.70;;;;;;;-5.23;100.00;94512.50;2130748;27;20030;-74
2023/02/14 04:13:37;;;;;;;5.65;4.60;;;;;;;-5.18;100.00;94512.47;2126722;27;20054;-74
2023/02/14 04:14:39;;;;;;;6.22;4.78;;;;;;;-5.19;100.00;94517.94;2129665;27;20446;-74
2023/02/14 04:15:39;;;;;;;6.10;4.68;;;;;;;-5.23;100.00;94520.31;2118664;27;20031;-74
2023/02/14 04:19:23;;;;;;;5.55;4.97;;;;;;;-5.20;100.00;94514.56;2130641;27;20500;-74
2023/02/14 04:20:25;;;;;;;6.32;4.60;;;;;;;-5.22;100.00;94516.69;2130497;27;20038;-74
2023/02/14 04:21:28;;;;;;;4.90;4.15;;;;;;;-5.23;100.00;94520.31;2130540;27;20068;-75
2023/02/14 04:22:29;;;;;;;5.20;4.13;;;;;;;-5.24;100.00;94510.19;2131005;27;20114;-74
2023/02/14 04:23:29;;;;;;;6.03;4.45;;;;;;;-5.31;100.00;94513.16;2127452;27;20022;-74
2023/02/14 04:24:30;;;;;;;5.43;4.50;;;;;;;-5.30;100.00;94519.91;2127356;27;20515;-74
2023/02/14 04:25:31;;;;;;;5.75;4.60;;;;;;;-5.37;100.00;94514.28;2121534;27;20027;-75
2023/02/14 04:26:34;;;;;;;7.97;5.13;;;;;;;-5.33;100.00;94515.25;2120501;27;20043;-75
2023/02/14 04:27:34;;;;;;;6.00;4.70;;;;;;;-5.38;100.00;94518.72;2128329;27;20034;-74
2023/02/14 04:28:38;;;;;;;6.68;4.65;;;;;;;-5.35;100.00;94512.94;2129694;27;20033;-75
2023/02/14 04:29:44;;;;;;;6.43;4.93;;;;;;;-5.35;100.00;94517.38;2120401;27;20034;-75
2023/02/14 04:30:45;;;;;;;5.65;5.00;;;;;;;-5.30;100.00;94519.91;2117922;27;20114;-75
2023/02/14 04:31:46;;;;;;;6.40;5.03;;;;;;;-5.30;100.00;94519.16;2128856;27;20031;-74
2023/02/14 04:32:48;;;;;;;7.05;5.60;;;;;;;-5.27;100.00;94521.94;2130716;27;20043;-76
2023/02/14 04:33:50;;;;;;;6.32;5.40;;;;;;;-5.26;100.00;94525.34;2116538;27;20028;-76
2023/02/14 04:34:51;;;;;;;7.93;5.53;;;;;;;-5.28;100.00;94533.44;2121570;27;20068;-76
2023/02/14 04:35:52;;;;;;;6.60;5.15;;;;;;;-5.25;100.00;94521.69;2130121;27;20064;-77
2023/02/14 04:36:53;;;;;;;7.22;5.55;;;;;;;-5.27;100.00;94532.38;2129287;27;20069;-76
2023/02/14 04:37:55;;;;;;;7.47;5.88;;;;;;;-5.22;100.00;94527.13;2117766;27;20035;-75
2023/02/14 04:38:56;;;;;;;12.57;7.50;;;;;;;-5.32;100.00;94530.59;2116763;27;20028;-76
2023/02/14 04:39:57;;;;;;;8.95;6.00;;;;;;;-5.31;100.00;94526.19;2116667;27;20023;-77
2023/02/14 04:40:58;;;;;;;8.82;6.15;;;;;;;-5.29;100.00;94531.13;2118614;27;20033;-76
2023/02/14 04:42:00;;;;;;;6.90;5.32;;;;;;;-5.34;100.00;94526.75;2118121;28;20381;-76
2023/02/14 04:43:03;;;;;;;10.52;5.88;;;;;;;-5.32;100.00;94532.44;2111204;27;20035;-76
2023/02/14 04:44:04;;;;;;;6.93;5.97;;;;;;;-5.29;100.00;94537.09;2108170;28;20107;-76
2023/02/14 04:45:05;;;;;;;7.57;6.35;;;;;;;-5.28;100.00;94536.03;2118332;27;20066;-77
2023/02/14 04:46:06;;;;;;;7.60;6.38;;;;;;;-5.38;100.00;94533.56;2112897;28;20495;-76
2023/02/14 04:47:08;;;;;;;6.70;5.60;;;;;;;-5.37;100.00;94537.72;2112942;28;20032;-75
2023/02/14 04:48:09;;;;;;;9.05;5.90;;;;;;;-5.36;100.00;94534.06;2120751;27;20476;-77
2023/02/14 04:49:10;;;;;;;8.70;6.18;;;;;;;-5.38;100.00;94529.13;2128784;27;20027;-76
2023/02/14 04:50:12;;;;;;;8.07;6.00;;;;;;;-5.33;100.00;94530.91;2120559;27;20096;-76
2023/02/14 04:51:13;;;;;;;8.10;6.05;;;;;;;-5.43;100.00;94528.44;2120176;27;20497;-76
2023/02/14 04:52:14;;;;;;;9.38;6.13;;;;;;;-5.42;100.00;94532.56;2125744;27;20130;-75
2023/02/14 04:53:18;;;;;;;10.65;6.43;;;;;;;-5.48;100.00;94534.47;2126460;27;20049;-76
2023/02/14 04:54:19;;;;;;;7.93;6.30;;;;;;;-5.46;100.00;94531.59;2120155;27;20565;-75
2023/02/14 04:55:19;;;;;;;9.88;6.85;;;;;;;-5.46;100.00;94528.97;2119223;27;20108;-76
2023/02/14 04:56:21;;;;;;;7.82;6.78;;;;;;;-5.42;100.00;94537.78;2126840;27;20046;-75
2023/02/14 04:57:22;;;;;;;9.73;6.50;;;;;;;-5.42;100.00;94529.97;2121114;27;20042;-75
2023/02/14 04:58:23;;;;;;;8.70;6.70;;;;;;;-5.39;100.00;94532.03;2121873;27;20061;-75
2023/02/14 04:59:24;;;;;;;10.18;7.50;;;;;;;-5.38;100.00;94530.97;2127261;27;20392;-75
2023/02/14 05:00:25;;;;;;;8.30;6.50;;;;;;;-5.40;100.00;94533.84;2116466;27;20118;-74
2023/02/14 05:01:26;;;;;;;7.97;6.50;;;;;;;-5.37;100.00;94537.72;2111854;28;20053;-76
2023/02/14 05:02:27;;;;;;;10.98;7.03;;;;;;;-5.37;100.00;94537.72;2121584;27;20556;-75
2023/02/14 05:03:28;;;;;;;8.65;6.47;;;;;;;-5.31;100.00;94539.22;2117439;27;20412;-75
2023/02/14 05:04:29;;;;;;;9.48;7.18;;;;;;;-5.32;100.00;94540.25;2117552;27;20019;-75
2023/02/14 05:05:30;;;;;;;8.07;6.18;;;;;;;-5.36;100.00;94536.66;2130014;27;20041;-75
2023/02/14 05:06:31;;;;;;;9.65;6.72;;;;;;;-5.35;100.00;94535.63;2128128;27;20029;-75
2023/02/14 05:07:32;;;;;;;8.02;5.93;;;;;;;-5.37;100.00;94538.50;2126791;27;20434;-75
2023/02/14 05:08:33;;;;;;;7.40;6.00;;;;;;;-5.37;100.00;94537.72;2125783;27;20163;-75
2023/02/14 05:09:34;;;;;;;9.35;7.00;;;;;;;-5.37;100.00;94538.50;2129517;27;20059;-75
2023/02/14 05:10:35;;;;;;;10.80;7.10;;;;;;;-5.41;100.00;94536.72;2124616;27;20019;-75
2023/02/14 05:11:37;;;;;;;8.93;6.93;;;;;;;-5.39;100.00;94532.81;2130128;27;20373;-75
2023/02/14 05:12:38;;;;;;;9.23;6.60;;;;;;;-5.42;100.00;94530.75;2130227;27;20030;-74
2023/02/14 05:13:39;;;;;;;12.40;7.43;;;;;;;-5.39;100.00;94539.84;2126401;27;20031;-75
2023/02/14 05:14:40;;;;;;;15.75;10.90;;;;;;;-5.40;100.00;94531.25;2124868;27;20015;-74
2023/02/14 05:15:40;;;;;;;20.70;15.10;;;;;;;-5.41;100.00;94531.50;2128616;27;20019;-75
2023/02/14 05:16:41;;;;;;;19.27;14.85;;;;;;;-5.43;100.00;94531.03;2130247;27;20034;-74
2023/02/14 05:17:43;;;;;;;26.45;18.65;;;;;;;-5.41;100.00;94534.91;2126384;27;20059;-76
2023/02/14 05:18:44;;;;;;;42.08;27.85;;;;;;;-5.50;100.00;94535.81;2107399;28;20640;-74
2023/02/14 05:19:45;;;;;;;38.60;26.08;;;;;;;-5.42;100.00;94532.56;2108543;27;20074;-74
2023/02/14 05:20:50;;;;;;;30.13;20.90;;;;;;;-5.43;100.00;94531.81;2121531;27;20104;-75